메인 페이지
METAR-TAF:

METAR-TAF

공항 :

피츠버그 국제공항

피츠버그, 펜실베이니아, 미국

위도: 40-30-14N, 경도: 080-15-59W, 고도: 366m

현재 날씨관측

예보는 16분 전, 13:51시(UTC)에 발표되었습니다.
남남서12kt
온도 6°C
습도 49%
기압 1015 hPa
시정: 16.1km
고도 6500ft 상공 구름 보통
고도 9500ft 상공 흐림

METAR: KPIT 061351Z 21012KT 10SM SCT065 OVC095 06/M04 A2997 RMK AO2 SLP166 T00561039

시각: 09:07 (14:07 UTC)

예보

예보는 2 시간 35분 전, 11:32시(UTC)에 발표되었습니다.
예보 대상 시간: 06일 12시부터 07일 18시까지 (UTC)
남남서6kt
시정: 10km
고도 8000ft 상공 흐림
06일 1900시부터 (UTC)
10kt, 순간 최대 풍속 20kt
시정: 10km
고도 2500ft 상공 흐림
07일 0100시부터 (UTC)
북북서8kt
시정: 10km
고도 2500ft 상공 구름 보통
07일 1500시부터 (UTC)
여러 방향의 바람 4kt
시정: 10km
고도 10000ft 상공 구름 보통

TAF: KPIT 061132Z 0612/0718 21006KT P6SM OVC080 WS020/25035KT FM061900 27010G20KT P6SM OVC025 FM070100 33008KT P6SM SCT025 FM071500 VRB04KT P6SM SCT100

4,000개 이상의 공항 관측 자료 및 예보 (METAR 및 TAF 보고).

지도상에서 검색 가능한 기상관측소가 노란 점과 빨간 점으로 표시되어 있습니다.

기상관측소 명을 보려면 표시 위로 마우스를 이동하세요.

날씨 관측과 예보를 보려면 클릭하세요.

지도 변경 : 확대하려면 엑스 표시가 있는 녹색 버튼, 축소하려면 빼기 표시가 있는 녹색 버튼, 다음 페이지의 지도를 보려면 녹색 화살표를 클릭하세요.


METAR-TAF: